createdAt,value
2022-12-11T00:01:18.040Z,-7.97
2022-12-11T00:03:46.871Z,-8.02
2022-12-11T00:06:15.977Z,-8.08
2022-12-11T00:08:43.173Z,-8.07
2022-12-11T00:11:12.513Z,-8.10
2022-12-11T00:13:39.424Z,-8.14
2022-12-11T00:16:06.537Z,-8.15
2022-12-11T00:18:33.524Z,-8.17
2022-12-11T00:21:13.009Z,-8.14
2022-12-11T00:23:39.935Z,-8.16
2022-12-11T00:26:09.579Z,-8.23
2022-12-11T00:28:36.842Z,-8.28
2022-12-11T00:31:08.174Z,-8.31
2022-12-11T00:33:35.303Z,-8.34
2022-12-11T00:36:02.188Z,-8.36
2022-12-11T00:38:29.298Z,-8.37
2022-12-11T00:40:59.940Z,-8.37
2022-12-11T00:43:26.998Z,-8.32
2022-12-11T00:45:53.970Z,-8.21
2022-12-11T00:48:21.028Z,-8.07
2022-12-11T00:50:48.151Z,-7.91
2022-12-11T00:53:15.541Z,-7.80
2022-12-11T00:55:43.561Z,-7.69
2022-12-11T00:58:11.366Z,-7.58
2022-12-11T01:00:39.256Z,-7.50
2022-12-11T01:03:07.109Z,-7.45
2022-12-11T01:05:46.495Z,-7.43
2022-12-11T01:08:18.033Z,-7.34
2022-12-11T01:10:47.004Z,-7.28
2022-12-11T01:13:14.208Z,-7.22
2022-12-11T01:15:43.750Z,-7.13
2022-12-11T01:18:12.748Z,-7.03
2022-12-11T01:20:41.250Z,-6.90
2022-12-11T01:23:08.540Z,-6.78
2022-12-11T01:25:38.264Z,-6.68
2022-12-11T01:30:33.764Z,-6.50
2022-12-11T01:33:01.326Z,-6.46
2022-12-11T01:35:28.686Z,-6.38
2022-12-11T01:37:55.988Z,-6.33
2022-12-11T01:40:23.093Z,-6.26
2022-12-11T01:42:51.418Z,-6.41
2022-12-11T01:45:39.802Z,-6.57
2022-12-11T01:48:10.389Z,-6.80
2022-12-11T01:50:45.910Z,-6.71
2022-12-11T01:53:17.875Z,-6.61
2022-12-11T01:55:46.909Z,-6.46
2022-12-11T01:58:14.270Z,-6.35
2022-12-11T02:00:41.215Z,-6.26
2022-12-11T02:03:08.653Z,-6.20
2022-12-11T02:05:35.671Z,-6.14
2022-12-11T02:08:03.460Z,-6.08
2022-12-11T02:11:06.625Z,-6.04
2022-12-11T02:13:39.399Z,-5.98
2022-12-11T02:16:09.086Z,-5.91
2022-12-11T02:18:44.762Z,-5.85
2022-12-11T02:21:21.078Z,-5.84
2022-12-11T02:24:05.444Z,-5.77
2022-12-11T02:26:51.293Z,-5.65
2022-12-11T02:29:21.355Z,-5.60
2022-12-11T02:31:55.107Z,-5.53
2022-12-11T02:34:29.187Z,-5.48
2022-12-11T02:36:59.872Z,-5.41
2022-12-11T02:39:27.995Z,-5.40
2022-12-11T02:41:55.986Z,-5.38
2022-12-11T02:44:26.229Z,-5.30
2022-12-11T02:46:54.260Z,-5.22
2022-12-11T02:49:22.238Z,-5.17
2022-12-11T02:51:49.490Z,-5.12
2022-12-11T02:54:20.906Z,-5.08
2022-12-11T02:56:55.065Z,-5.03
2022-12-11T02:59:44.408Z,-5.02
2022-12-11T03:02:13.426Z,-4.99
2022-12-11T03:04:41.222Z,-4.94
2022-12-11T03:07:15.953Z,-4.93
2022-12-11T03:09:44.820Z,-4.86
2022-12-11T03:12:16.741Z,-4.85
2022-12-11T03:14:44.042Z,-4.78
2022-12-11T03:17:20.373Z,-4.73
2022-12-11T03:20:17.913Z,-4.63
2022-12-11T03:22:56.067Z,-4.63
2022-12-11T03:25:26.833Z,-4.55
2022-12-11T03:28:09.649Z,-4.43
2022-12-11T03:30:37.428Z,-4.32
2022-12-11T03:33:12.170Z,-4.50
2022-12-11T03:35:45.327Z,-4.63
2022-12-11T03:38:23.208Z,-4.70
2022-12-11T03:40:53.371Z,-4.78
2022-12-11T03:43:21.991Z,-4.74
2022-12-11T03:45:50.107Z,-4.58
2022-12-11T03:48:18.112Z,-4.28
2022-12-11T03:50:46.615Z,-4.09
2022-12-11T03:53:13.719Z,-4.05
2022-12-11T03:55:42.450Z,-4.01
2022-12-11T03:58:09.423Z,-3.93
2022-12-11T04:00:36.615Z,-3.79
2022-12-11T04:03:17.931Z,-3.71
2022-12-11T04:05:47.587Z,-3.64
2022-12-11T04:08:15.177Z,-3.57
2022-12-11T04:10:42.494Z,-3.56
2022-12-11T04:13:10.364Z,-3.55
2022-12-11T04:15:38.111Z,-3.64
2022-12-11T04:18:23.994Z,-3.74
2022-12-11T04:21:12.514Z,-3.83
2022-12-11T04:23:58.170Z,-3.97
2022-12-11T04:26:25.833Z,-4.14
2022-12-11T04:28:52.716Z,-4.28
2022-12-11T04:31:22.409Z,-4.39
2022-12-11T04:33:49.536Z,-4.52
2022-12-11T04:36:16.898Z,-4.59
2022-12-11T04:38:43.784Z,-4.59
2022-12-11T04:41:13.693Z,-4.60
2022-12-11T04:43:40.912Z,-4.55
2022-12-11T04:46:14.992Z,-4.53
2022-12-11T04:48:42.631Z,-4.45
2022-12-11T04:51:10.447Z,-4.41
2022-12-11T04:53:38.159Z,-4.36
2022-12-11T04:56:07.371Z,-4.36
2022-12-11T04:58:36.022Z,-4.32
2022-12-11T05:01:22.775Z,-4.27
2022-12-11T05:03:50.468Z,-4.16
2022-12-11T05:06:17.533Z,-4.09
2022-12-11T05:08:45.465Z,-3.99
2022-12-11T05:11:15.042Z,-3.92
2022-12-11T05:13:42.625Z,-3.83
2022-12-11T05:16:11.631Z,-3.75
2022-12-11T05:18:38.862Z,-3.73
2022-12-11T05:21:08.047Z,-3.68
2022-12-11T05:23:35.485Z,-3.64
2022-12-11T05:26:15.230Z,-3.59
2022-12-11T05:28:42.379Z,-3.51
2022-12-11T05:31:14.105Z,-3.44
2022-12-11T05:33:41.899Z,-3.40
2022-12-11T05:36:09.580Z,-3.39
2022-12-11T05:38:36.452Z,-3.54
2022-12-11T05:41:06.284Z,-3.63
2022-12-11T05:43:34.803Z,-3.55
2022-12-11T05:46:10.549Z,-3.40
2022-12-11T05:48:38.502Z,-3.20
2022-12-11T05:51:06.799Z,-3.05
2022-12-11T05:53:33.851Z,-2.91
2022-12-11T05:56:08.649Z,-2.78
2022-12-11T05:58:35.992Z,-2.71
2022-12-11T06:01:07.041Z,-2.68
2022-12-11T06:03:34.159Z,-2.56
2022-12-11T06:06:05.349Z,-2.53
2022-12-11T06:08:33.057Z,-2.42
2022-12-11T06:11:00.217Z,-2.35
2022-12-11T06:13:27.339Z,-2.29
2022-12-11T06:15:54.430Z,-2.21
2022-12-11T06:18:21.703Z,-2.16
2022-12-11T06:20:48.840Z,-2.07
2022-12-11T06:23:15.795Z,-2.04
2022-12-11T06:25:42.762Z,-2.03
2022-12-11T06:28:09.785Z,-2.00
2022-12-11T06:30:38.594Z,-1.91
2022-12-11T06:33:06.968Z,-1.83
2022-12-11T06:35:38.725Z,-1.74
2022-12-11T06:38:09.151Z,-1.68
2022-12-11T06:40:36.243Z,-1.63
2022-12-11T06:43:04.095Z,-1.55
2022-12-11T06:45:31.252Z,-1.55
2022-12-11T06:47:59.180Z,-1.50
2022-12-11T06:50:26.488Z,-1.41
2022-12-11T06:52:53.475Z,-1.35
2022-12-11T06:55:20.504Z,-1.30
2022-12-11T06:57:47.447Z,-1.32
2022-12-11T07:00:15.173Z,-1.35
2022-12-11T07:02:42.175Z,-1.25
2022-12-11T07:05:09.729Z,-1.15
2022-12-11T07:07:36.901Z,-1.13
2022-12-11T07:10:08.227Z,-1.03
2022-12-11T07:12:35.705Z,-0.94
2022-12-11T07:15:02.981Z,-1.00
2022-12-11T07:17:30.424Z,-0.99
2022-12-11T07:19:57.677Z,-1.02
2022-12-11T07:22:24.761Z,-1.07
2022-12-11T07:24:51.712Z,-1.08
2022-12-11T07:27:19.024Z,-1.01
2022-12-11T07:29:46.247Z,-0.89
2022-12-11T07:32:13.382Z,-0.75
2022-12-11T07:34:40.691Z,-0.70
2022-12-11T07:37:08.060Z,-0.66
2022-12-11T07:39:35.220Z,-0.68
2022-12-11T07:42:02.412Z,-0.70
2022-12-11T07:44:30.021Z,-0.70
2022-12-11T07:46:58.056Z,-0.65
2022-12-11T07:49:24.980Z,-0.57
2022-12-11T07:51:52.079Z,-0.51
2022-12-11T07:54:19.083Z,-0.44
2022-12-11T07:56:53.181Z,-0.40
2022-12-11T07:59:22.666Z,-0.36
2022-12-11T08:01:52.409Z,-0.34
2022-12-11T08:04:20.321Z,-0.37
2022-12-11T08:06:49.379Z,-0.46
2022-12-11T08:09:21.112Z,-0.39
2022-12-11T08:11:54.072Z,-0.33
2022-12-11T08:14:22.508Z,-0.30
2022-12-11T08:16:50.738Z,-0.31
2022-12-11T08:19:18.289Z,-0.37
2022-12-11T08:21:45.491Z,-0.27
2022-12-11T08:24:12.590Z,-0.20
2022-12-11T08:26:40.813Z,-0.21
2022-12-11T08:29:08.422Z,-0.14
2022-12-11T08:31:35.577Z,-0.13
2022-12-11T08:34:02.782Z,-0.12
2022-12-11T08:36:29.858Z,-0.05
2022-12-11T08:38:57.310Z,0.03
2022-12-11T08:41:29.511Z,0.08
2022-12-11T08:43:58.182Z,0.07
2022-12-11T08:46:36.737Z,0.12
2022-12-11T08:49:16.991Z,0.15
2022-12-11T08:51:44.662Z,0.15
2022-12-11T09:01:55.723Z,0.16
2022-12-11T09:04:23.255Z,0.16
2022-12-11T09:06:50.372Z,0.23
2022-12-11T09:09:17.361Z,0.21
2022-12-11T09:11:44.336Z,0.20
2022-12-11T09:14:11.293Z,0.14
2022-12-11T09:16:40.820Z,0.20
2022-12-11T09:19:12.653Z,0.11
2022-12-11T09:21:39.903Z,0.11
2022-12-11T09:24:07.193Z,-0.05
2022-12-11T09:26:34.203Z,-0.11
2022-12-11T09:29:03.814Z,-0.16
2022-12-11T09:31:33.263Z,-0.18
2022-12-11T09:34:05.989Z,-0.25
2022-12-11T09:36:33.354Z,-0.20
2022-12-11T09:39:02.128Z,-0.30
2022-12-11T09:41:50.735Z,-0.27
2022-12-11T09:44:34.935Z,-0.40
2022-12-11T09:47:02.058Z,-0.37
2022-12-11T09:49:39.358Z,-0.25
2022-12-11T09:52:19.022Z,-0.31
2022-12-11T09:55:00.943Z,-0.31
2022-12-11T09:57:30.526Z,-0.21
2022-12-11T10:00:08.943Z,-0.35
2022-12-11T10:02:58.398Z,-0.29
2022-12-11T10:06:10.291Z,-0.46
2022-12-11T10:08:45.538Z,-0.19
2022-12-11T10:11:28.322Z,-0.32
2022-12-11T10:14:20.434Z,-0.40
2022-12-11T10:16:47.587Z,-0.30
2022-12-11T10:19:23.306Z,-0.28
2022-12-11T10:21:51.553Z,-0.37
2022-12-11T10:25:10.015Z,-0.30
2022-12-11T10:27:31.868Z,-0.29
2022-12-11T10:30:20.574Z,-0.24
2022-12-11T10:33:04.375Z,-0.20
2022-12-11T10:35:51.712Z,-0.17
2022-12-11T10:38:27.600Z,-0.24
2022-12-11T10:41:21.354Z,-0.12
2022-12-11T10:43:51.864Z,-0.09
2022-12-11T10:46:24.819Z,-0.19
2022-12-11T10:48:59.449Z,-0.22
2022-12-11T10:51:32.428Z,-0.32
2022-12-11T10:54:07.324Z,-0.27
2022-12-11T10:56:36.281Z,-0.29
2022-12-11T10:59:03.776Z,-0.21
2022-12-11T11:01:32.397Z,-0.14
2022-12-11T11:04:23.114Z,-0.17
2022-12-11T11:07:02.027Z,-0.11
2022-12-11T11:09:35.665Z,-0.09
2022-12-11T11:12:07.798Z,-0.15
2022-12-11T11:14:35.151Z,-0.16
2022-12-11T11:17:02.182Z,-0.14
2022-12-11T11:19:34.160Z,-0.14
2022-12-11T11:22:07.059Z,0.05
2022-12-11T11:24:41.180Z,0.06
2022-12-11T11:27:14.320Z,-0.02
2022-12-11T11:29:41.841Z,0.07
2022-12-11T11:32:24.043Z,0.28
2022-12-11T11:34:51.180Z,0.28
2022-12-11T11:37:36.403Z,0.16
2022-12-11T11:40:15.205Z,0.37
2022-12-11T11:43:38.200Z,0.24
2022-12-11T11:46:22.374Z,0.33
2022-12-11T11:49:12.580Z,0.29
2022-12-11T11:52:04.022Z,0.24
2022-12-11T11:54:36.933Z,0.30
2022-12-11T11:57:29.862Z,0.14
2022-12-11T12:00:09.728Z,0.28
2022-12-11T12:02:41.051Z,0.14
2022-12-11T12:05:13.383Z,0.20
2022-12-11T12:08:00.172Z,0.15
2022-12-11T12:10:48.397Z,0.24
2022-12-11T12:14:17.603Z,0.25
2022-12-11T12:17:08.011Z,0.09
2022-12-11T12:19:59.875Z,0.25
2022-12-11T12:22:51.604Z,0.17
2022-12-11T12:25:26.215Z,0.20
2022-12-11T12:27:58.611Z,0.17
2022-12-11T12:30:27.315Z,0.19
2022-12-11T12:33:07.710Z,0.21
2022-12-11T12:35:54.668Z,0.12
2022-12-11T12:38:38.175Z,0.11
2022-12-11T12:41:25.260Z,0.08
2022-12-11T12:44:00.820Z,0.05
2022-12-11T12:46:34.314Z,0.12
2022-12-11T12:49:01.884Z,0.12
2022-12-11T12:51:29.172Z,0.01
2022-12-11T12:53:59.776Z,0.01
2022-12-11T12:56:28.285Z,-0.03
2022-12-11T12:58:55.316Z,-0.03
2022-12-11T13:01:24.689Z,-0.03
2022-12-11T13:04:01.751Z,0.07
2022-12-11T13:06:36.213Z,-0.07
2022-12-11T13:09:23.847Z,-0.17
2022-12-11T13:11:57.900Z,-0.14
2022-12-11T13:14:28.598Z,-0.12
2022-12-11T13:17:20.537Z,-0.08
2022-12-11T13:19:49.661Z,-0.32
2022-12-11T13:22:16.575Z,-0.33
2022-12-11T13:24:50.575Z,-0.32
2022-12-11T13:27:38.454Z,-0.32
2022-12-11T13:30:26.238Z,-0.33
2022-12-11T13:33:07.034Z,-0.16
2022-12-11T13:35:35.460Z,-0.10
2022-12-11T13:38:13.263Z,-0.21
2022-12-11T13:40:43.226Z,-0.31
2022-12-11T13:43:22.632Z,-0.31
2022-12-11T13:45:55.352Z,-0.25
2022-12-11T13:48:34.006Z,-0.33
2022-12-11T13:51:02.101Z,-0.33
2022-12-11T13:53:29.619Z,-0.17
2022-12-11T13:55:57.995Z,-0.18
2022-12-11T13:58:25.108Z,-0.27
2022-12-11T14:01:05.039Z,-0.16
2022-12-11T14:03:32.536Z,-0.32
2022-12-11T14:06:00.569Z,-0.41
2022-12-11T14:08:43.246Z,-0.39
2022-12-11T14:11:20.944Z,-0.48
2022-12-11T14:13:48.094Z,-0.46
2022-12-11T14:16:21.199Z,-0.30
2022-12-11T14:18:50.435Z,-0.38
2022-12-11T14:21:23.050Z,-0.36
2022-12-11T14:23:55.787Z,-0.54
2022-12-11T14:26:31.741Z,-0.54
2022-12-11T14:28:58.786Z,-0.64
2022-12-11T14:31:37.363Z,-0.55
2022-12-11T14:34:07.663Z,-0.58
2022-12-11T14:36:35.610Z,-0.54
2022-12-11T14:39:07.238Z,-0.57
2022-12-11T14:41:45.179Z,-0.58
2022-12-11T14:44:15.932Z,-0.59
2022-12-11T14:46:55.063Z,-0.52
2022-12-11T14:49:47.567Z,-0.52
2022-12-11T14:52:20.730Z,-0.50
2022-12-11T14:54:54.412Z,-0.45
2022-12-11T14:57:28.124Z,-0.45
2022-12-11T14:59:55.530Z,-0.58
2022-12-11T15:02:35.070Z,-0.45
2022-12-11T15:05:22.337Z,-0.47
2022-12-11T15:08:00.952Z,-0.44
2022-12-11T15:10:57.316Z,-0.37
2022-12-11T15:13:24.731Z,-0.37
2022-12-11T15:15:52.225Z,-0.36
2022-12-11T15:18:24.501Z,-0.32
2022-12-11T15:20:53.670Z,-0.24
2022-12-11T15:23:20.819Z,-0.36
2022-12-11T15:25:59.085Z,-0.41
2022-12-11T15:28:37.473Z,-0.38
2022-12-11T15:31:07.707Z,-0.25
2022-12-11T15:33:46.130Z,-0.39
2022-12-11T15:36:31.493Z,-0.20
2022-12-11T15:38:58.763Z,-0.13
2022-12-11T15:41:25.978Z,-0.09
2022-12-11T15:43:58.556Z,-0.14
2022-12-11T15:46:26.174Z,-0.06
2022-12-11T15:48:53.378Z,-0.11
2022-12-11T15:51:20.459Z,-0.12
2022-12-11T15:53:47.652Z,-0.11
2022-12-11T15:56:18.160Z,-0.10
2022-12-11T15:58:47.339Z,-0.03
2022-12-11T16:01:14.692Z,-0.12
2022-12-11T16:03:42.162Z,-0.04
2022-12-11T16:06:12.731Z,-0.08
2022-12-11T16:08:39.803Z,-0.03
2022-12-11T16:11:07.013Z,0.03
2022-12-11T16:13:34.219Z,0.03
2022-12-11T16:16:01.728Z,0.10
2022-12-11T16:18:28.964Z,0.05
2022-12-11T16:20:56.336Z,0.06
2022-12-11T16:23:25.471Z,0.10
2022-12-11T16:25:54.189Z,0.13
2022-12-11T16:28:21.353Z,0.12
2022-12-11T16:30:48.826Z,0.13
2022-12-11T16:33:15.995Z,0.13
2022-12-11T16:35:43.220Z,0.19
2022-12-11T16:38:11.143Z,0.22
2022-12-11T16:40:38.614Z,0.24
2022-12-11T16:43:06.094Z,0.28
2022-12-11T16:45:34.015Z,0.30
2022-12-11T16:48:03.874Z,0.31
2022-12-11T16:50:32.297Z,0.36
2022-12-11T16:53:00.273Z,0.24
2022-12-11T16:55:27.256Z,0.26
2022-12-11T16:57:55.336Z,0.27
2022-12-11T17:00:22.698Z,0.24
2022-12-11T17:02:50.067Z,0.28
2022-12-11T17:05:17.685Z,0.28
2022-12-11T17:07:45.254Z,0.31
2022-12-11T17:10:12.348Z,0.35
2022-12-11T17:12:39.560Z,0.36
2022-12-11T17:15:07.399Z,0.38
2022-12-11T17:17:34.706Z,0.34
2022-12-11T17:20:02.157Z,0.35
2022-12-11T17:22:29.132Z,0.41
2022-12-11T17:24:56.260Z,0.42
2022-12-11T17:27:23.295Z,0.42
2022-12-11T17:29:51.803Z,0.41
2022-12-11T17:32:20.098Z,0.34
2022-12-11T17:34:49.707Z,0.40
2022-12-11T17:37:18.011Z,0.41
2022-12-11T17:39:45.289Z,0.41
2022-12-11T17:42:12.298Z,0.37
2022-12-11T17:44:39.394Z,0.42
2022-12-11T17:47:11.107Z,0.41
2022-12-11T17:49:40.607Z,0.40
2022-12-11T17:52:08.023Z,0.46
2022-12-11T17:54:35.272Z,0.44
2022-12-11T17:57:02.670Z,0.41
2022-12-11T17:59:29.565Z,0.40
2022-12-11T18:01:56.564Z,0.42
2022-12-11T18:04:24.131Z,0.44
2022-12-11T18:06:51.643Z,0.46
2022-12-11T18:09:19.141Z,0.47
2022-12-11T18:11:46.410Z,0.42
2022-12-11T18:14:17.075Z,0.46
2022-12-11T18:16:45.015Z,0.45
2022-12-11T18:19:12.173Z,0.43
2022-12-11T18:21:42.930Z,0.46
2022-12-11T18:24:10.701Z,0.44
2022-12-11T18:26:38.208Z,0.47
2022-12-11T18:29:05.550Z,0.48
2022-12-11T18:31:35.360Z,0.41
2022-12-11T18:34:06.496Z,0.40
2022-12-11T18:36:35.000Z,0.46
2022-12-11T18:39:01.925Z,0.40
2022-12-11T18:41:32.243Z,0.44
2022-12-11T18:44:09.288Z,0.41
2022-12-11T18:46:37.177Z,0.43
2022-12-11T18:49:04.368Z,0.44
2022-12-11T18:51:31.435Z,0.42
2022-12-11T18:53:58.803Z,0.34
2022-12-11T18:56:25.752Z,0.32
2022-12-11T18:58:52.849Z,0.37
2022-12-11T19:01:22.850Z,0.40
2022-12-11T19:03:51.293Z,0.36
2022-12-11T19:06:20.841Z,0.38
2022-12-11T19:08:48.271Z,0.37
2022-12-11T19:11:20.624Z,0.34
2022-12-11T19:13:48.610Z,0.39
2022-12-11T19:16:24.390Z,0.41
2022-12-11T19:18:51.808Z,0.39
2022-12-11T19:21:19.599Z,0.36
2022-12-11T19:23:47.081Z,0.38
2022-12-11T19:26:17.490Z,0.44
2022-12-11T19:28:44.891Z,0.42
2022-12-11T19:31:13.921Z,0.42
2022-12-11T19:33:41.850Z,0.42
2022-12-11T19:36:13.775Z,0.50
2022-12-11T19:38:42.286Z,0.41
2022-12-11T19:41:21.753Z,0.49
2022-12-11T19:43:50.114Z,0.53
2022-12-11T19:46:18.041Z,0.45
2022-12-11T19:48:45.219Z,0.51
2022-12-11T19:51:18.410Z,0.61
2022-12-11T19:53:46.815Z,0.54
2022-12-11T19:56:14.892Z,0.55
2022-12-11T19:58:42.379Z,0.50
2022-12-11T20:01:10.271Z,0.56
2022-12-11T20:03:38.138Z,0.51
2022-12-11T20:06:08.228Z,0.52
2022-12-11T20:08:44.539Z,0.51
2022-12-11T20:11:17.594Z,0.50
2022-12-11T20:13:46.946Z,0.58
2022-12-11T20:16:14.705Z,0.63
2022-12-11T20:18:42.719Z,0.55
2022-12-11T20:21:13.110Z,0.60
2022-12-11T20:23:42.243Z,0.57
2022-12-11T20:26:22.514Z,0.55
2022-12-11T20:28:53.526Z,0.60
2022-12-11T20:31:26.114Z,0.64
2022-12-11T20:33:54.378Z,0.64
2022-12-11T20:36:23.260Z,0.63
2022-12-11T20:38:51.083Z,0.62
2022-12-11T20:41:21.421Z,0.64
2022-12-11T20:43:49.610Z,0.62
2022-12-11T20:46:18.183Z,0.63
2022-12-11T20:48:46.015Z,0.65
2022-12-11T20:51:20.869Z,0.59
2022-12-11T20:53:57.939Z,0.65
2022-12-11T20:56:29.610Z,0.66
2022-12-11T20:58:58.152Z,0.54
2022-12-11T21:01:28.010Z,0.62
2022-12-11T21:03:55.648Z,0.64
2022-12-11T21:06:31.909Z,0.64
2022-12-11T21:09:00.995Z,0.67
2022-12-11T21:11:29.321Z,0.64
2022-12-11T21:13:56.870Z,0.66
2022-12-11T21:16:24.631Z,0.60
2022-12-11T21:18:52.139Z,0.60
2022-12-11T21:21:20.005Z,0.61
2022-12-11T21:23:47.068Z,0.62
2022-12-11T21:26:14.399Z,0.63
2022-12-11T21:28:41.339Z,0.65
2022-12-11T21:31:11.865Z,0.62
2022-12-11T21:33:38.986Z,0.65
2022-12-11T21:36:07.088Z,0.65
2022-12-11T21:38:34.177Z,0.64
2022-12-11T21:41:09.475Z,0.56
2022-12-11T21:43:40.024Z,0.65
2022-12-11T21:46:16.970Z,0.63
2022-12-11T21:48:44.535Z,0.64
2022-12-11T21:51:24.330Z,0.62
2022-12-11T21:53:52.101Z,0.58
2022-12-11T21:56:22.740Z,0.62
2022-12-11T21:58:51.989Z,0.64
2022-12-11T22:01:23.640Z,0.63
2022-12-11T22:03:52.469Z,0.66
2022-12-11T22:06:19.631Z,0.68
2022-12-11T22:08:49.230Z,0.72
2022-12-11T22:11:21.979Z,0.58
2022-12-11T22:13:49.054Z,0.64
2022-12-11T22:16:16.071Z,0.65
2022-12-11T22:18:43.153Z,0.59
2022-12-11T22:21:10.134Z,0.64
2022-12-11T22:23:41.101Z,0.58
2022-12-11T22:26:09.130Z,0.60
2022-12-11T22:28:36.004Z,0.59
2022-12-11T22:31:04.788Z,0.60
2022-12-11T22:33:31.747Z,0.62
2022-12-11T22:35:59.577Z,0.63
2022-12-11T22:38:26.810Z,0.62
2022-12-11T22:40:54.610Z,0.58
2022-12-11T22:43:21.820Z,0.54
2022-12-11T22:45:49.451Z,0.56
2022-12-11T22:48:16.530Z,0.59
2022-12-11T22:50:44.407Z,0.59
2022-12-11T22:53:11.761Z,0.58
2022-12-11T22:55:40.027Z,0.59
2022-12-11T22:58:07.719Z,0.59
2022-12-11T23:00:35.020Z,0.57
2022-12-11T23:03:02.530Z,0.58
2022-12-11T23:05:29.951Z,0.57
2022-12-11T23:07:57.150Z,0.59
2022-12-11T23:10:24.266Z,0.56
2022-12-11T23:12:51.252Z,0.56
2022-12-11T23:15:18.821Z,0.56
2022-12-11T23:17:45.760Z,0.55
2022-12-11T23:20:12.796Z,0.55
2022-12-11T23:22:39.953Z,0.51
2022-12-11T23:25:07.429Z,0.46
2022-12-11T23:27:34.414Z,0.43
2022-12-11T23:30:01.439Z,0.40
2022-12-11T23:32:28.386Z,0.43
2022-12-11T23:34:55.303Z,0.42
2022-12-11T23:37:22.194Z,0.44
2022-12-11T23:39:49.176Z,0.42
2022-12-11T23:42:16.135Z,0.42
2022-12-11T23:44:43.276Z,0.42
2022-12-11T23:47:10.207Z,0.43
2022-12-11T23:49:37.322Z,0.42
2022-12-11T23:52:04.500Z,0.39
2022-12-11T23:54:31.775Z,0.32
2022-12-11T23:56:58.703Z,0.26
2022-12-11T23:59:25.783Z,0.25
